Time;durP1;ratioP1;P1;durP2;ratioP2;P2;SDS_P1;SDS_P2;PMS_P1;PMS_P2;Temp;Humidity;BMP_temperature;BMP_pressure;BME280_temperature;BME280_humidity;BME280_pressure;Samples;Min_cycle;Max_cycle;Signal;HPM_P1;HPM_P2
2022/05/26 00:02:03;;;;;;;1.50;0.60;;;;;;;13.77;100.00;96790.72;5017225;28;20045;-75
2022/05/26 00:04:28;;;;;;;4.07;0.70;;;;;;;13.80;100.00;96792.09;5017540;28;20068;-73
2022/05/26 00:06:55;;;;;;;2.50;0.73;;;;;;;13.76;100.00;96789.09;4998136;28;20430;-75
2022/05/26 00:09:22;;;;;;;1.85;0.77;;;;;;;13.76;100.00;96780.22;4996405;28;20433;-72
2022/05/26 00:11:47;;;;;;;3.55;0.70;;;;;;;13.74;100.00;96787.75;5015257;28;20317;-72
2022/05/26 00:14:13;;;;;;;1.85;0.52;;;;;;;13.71;100.00;96789.09;5014831;28;20038;-74
2022/05/26 00:16:42;;;;;;;2.30;0.60;;;;;;;13.72;100.00;96789.91;5013745;28;20095;-72
2022/05/26 00:19:08;;;;;;;4.78;0.68;;;;;;;13.71;100.00;96791.78;5012026;28;20342;-73
2022/05/26 00:21:34;;;;;;;4.25;0.90;;;;;;;13.68;100.00;96791.47;5013139;28;20062;-75
2022/05/26 00:24:00;;;;;;;2.28;0.60;;;;;;;13.67;100.00;96790.66;5025526;28;20738;-73
2022/05/26 00:26:26;;;;;;;2.47;0.60;;;;;;;13.69;100.00;96785.03;5014874;28;20033;-75
2022/05/26 00:28:51;;;;;;;2.40;0.70;;;;;;;13.71;100.00;96789.09;5012383;28;20037;-73
2022/05/26 00:31:17;;;;;;;3.42;0.70;;;;;;;13.71;100.00;96797.16;5016773;28;20046;-73
2022/05/26 00:33:43;;;;;;;2.58;0.80;;;;;;;13.72;100.00;96790.72;5013652;28;20041;-73
2022/05/26 00:36:12;;;;;;;5.47;0.80;;;;;;;13.59;100.00;96785.78;5014309;28;20428;-71
2022/05/26 00:38:38;;;;;;;2.17;0.65;;;;;;;13.62;100.00;96790.66;5014156;28;20065;-74
2022/05/26 00:41:07;;;;;;;4.13;1.02;;;;;;;13.59;100.00;96785.78;5000777;28;20102;-71
2022/05/26 00:43:32;;;;;;;1.67;0.50;;;;;;;13.59;100.00;96793.84;5032796;28;20104;-72
2022/05/26 00:46:13;;;;;;;3.88;0.68;;;;;;;13.58;100.00;96784.97;5019548;28;20511;-72
2022/05/26 00:48:51;;;;;;;4.65;0.70;;;;;;;13.61;100.00;96792.50;5021438;28;20076;-72
2022/05/26 00:51:19;;;;;;;2.17;0.50;;;;;;;13.60;100.00;96787.41;5033520;28;20067;-72
2022/05/26 00:53:51;;;;;;;5.82;0.75;;;;;;;13.58;100.00;96789.53;5016753;28;20116;-71
2022/05/26 00:56:22;;;;;;;4.25;0.75;;;;;;;13.55;100.00;96788.19;5018305;28;20038;-74
2022/05/26 00:58:55;;;;;;;3.75;0.88;;;;;;;13.56;100.00;96786.31;5015064;28;20492;-73
2022/05/26 01:01:21;;;;;;;2.65;0.70;;;;;;;13.51;100.00;96788.97;5016607;28;20045;-71
2022/05/26 01:03:53;;;;;;;1.25;0.55;;;;;;;13.37;100.00;96786.72;5019713;28;20067;-71
2022/05/26 01:06:35;;;;;;;2.70;0.60;;;;;;;13.38;100.00;96787.50;5018278;28;20616;-72
2022/05/26 01:09:03;;;;;;;2.95;0.60;;;;;;;13.46;100.00;96799.66;5017063;28;20041;-74
2022/05/26 01:11:33;;;;;;;4.55;0.90;;;;;;;13.31;100.00;96790.44;5016445;28;20210;-72
2022/05/26 01:14:07;;;;;;;3.83;0.70;;;;;;;13.27;100.00;96796.59;5017965;28;20293;-71
2022/05/26 01:16:49;;;;;;;1.80;0.60;;;;;;;13.34;100.00;96799.88;5018890;28;20563;-72
2022/05/26 01:19:49;;;;;;;1.70;0.43;;;;;;;13.28;100.00;96803.56;5017008;28;20041;-72
2022/05/26 01:23:06;;;;;;;0.70;0.40;;;;;;;13.25;100.00;96802.22;5015970;28;20058;-73
2022/05/26 01:25:49;;;;;;;1.65;0.55;;;;;;;13.25;100.00;96802.22;4986779;28;20046;-71
2022/05/26 01:28:30;;;;;;;2.58;0.60;;;;;;;13.21;100.00;96800.28;5017956;28;20459;-72
2022/05/26 01:31:15;;;;;;;2.15;0.40;;;;;;;13.14;100.00;96805.84;5015921;28;20045;-73
2022/05/26 01:33:46;;;;;;;2.47;0.65;;;;;;;13.11;100.00;96807.19;5017658;28;20077;-73
2022/05/26 01:36:36;;;;;;;2.13;0.60;;;;;;;13.01;100.00;96804.41;5013745;28;20231;-72
2022/05/26 01:39:09;;;;;;;1.35;0.50;;;;;;;13.06;100.00;96806.31;5013394;28;20394;-71
2022/05/26 01:42:29;;;;;;;2.53;0.70;;;;;;;13.09;100.00;96801.25;5019306;28;20267;-72
2022/05/26 01:45:22;;;;;;;3.05;0.60;;;;;;;13.08;100.00;96807.69;4918042;29;20051;-72
2022/05/26 01:48:02;;;;;;;5.03;0.70;;;;;;;13.08;100.00;96802.31;4917868;29;20047;-72
2022/05/26 01:50:52;;;;;;;3.15;1.02;;;;;;;13.08;100.00;96813.06;5002409;28;20049;-71
2022/05/26 01:53:50;;;;;;;1.75;0.70;;;;;;;13.04;100.00;96814.63;5018932;28;20093;-72
2022/05/26 01:56:21;;;;;;;2.45;0.93;;;;;;;13.03;100.00;96810.34;5017211;28;20409;-73
2022/05/26 01:58:56;;;;;;;6.60;0.80;;;;;;;13.06;100.00;96809.81;5015118;28;20041;-72
2022/05/26 02:01:29;;;;;;;1.48;0.50;;;;;;;13.02;100.00;96808.72;5032415;28;21700;-72
2022/05/26 02:03:57;;;;;;;1.67;0.47;;;;;;;12.94;100.00;96811.88;5016235;28;20061;-73
2022/05/26 02:06:29;;;;;;;2.97;0.70;;;;;;;12.92;100.00;96808.63;5018708;28;20074;-72
2022/05/26 02:09:07;;;;;;;2.10;0.50;;;;;;;12.92;100.00;96815.84;5014133;28;20056;-72
2022/05/26 02:11:40;;;;;;;2.10;0.63;;;;;;;12.94;100.00;96811.06;5007786;28;20037;-71
2022/05/26 02:14:26;;;;;;;2.30;0.70;;;;;;;12.93;100.00;96807.56;5013369;28;20436;-71
2022/05/26 02:16:58;;;;;;;3.35;0.68;;;;;;;12.81;100.00;96798.84;5014137;28;20029;-71
2022/05/26 02:19:46;;;;;;;1.20;0.50;;;;;;;12.84;100.00;96803.72;5034058;28;20168;-72
2022/05/26 02:22:17;;;;;;;1.67;0.60;;;;;;;12.92;100.00;96808.63;5016702;28;20046;-72
2022/05/26 02:24:51;;;;;;;1.40;0.50;;;;;;;12.88;100.00;96810.19;5017809;28;20292;-72
2022/05/26 02:27:17;;;;;;;1.67;0.60;;;;;;;12.90;100.00;96813.44;5013899;28;20489;-72
2022/05/26 02:29:51;;;;;;;2.38;0.60;;;;;;;12.85;100.00;96812.59;5017938;28;20043;-71
2022/05/26 02:32:24;;;;;;;2.17;0.60;;;;;;;12.67;100.00;96809.16;5012802;28;20496;-74
2022/05/26 02:34:51;;;;;;;2.20;0.70;;;;;;;12.60;100.00;96808.56;5009615;28;20038;-72
2022/05/26 02:37:19;;;;;;;4.38;0.70;;;;;;;12.55;100.00;96806.66;5014276;28;20037;-72
2022/05/26 02:39:44;;;;;;;8.05;1.33;;;;;;;12.58;100.00;96809.88;5017946;28;20037;-73
2022/05/26 02:42:11;;;;;;;1.05;0.50;;;;;;;12.59;100.00;96819.56;5017175;28;20041;-74
2022/05/26 02:44:37;;;;;;;2.42;0.60;;;;;;;12.60;100.00;96810.44;5013258;28;20037;-72
2022/05/26 02:47:12;;;;;;;3.60;0.63;;;;;;;12.66;100.00;96806.75;5014170;28;20261;-72
2022/05/26 02:50:13;;;;;;;1.30;0.60;;;;;;;12.68;100.00;96812.66;5001091;28;20393;-71
2022/05/26 02:53:40;;;;;;;2.50;0.60;;;;;;;12.60;100.00;96810.44;5002329;28;20056;-72
2022/05/26 02:56:28;;;;;;;2.13;0.63;;;;;;;12.53;100.00;96808.78;4909009;29;20084;-72
2022/05/26 02:59:19;;;;;;;1.45;0.50;;;;;;;12.47;100.00;96809.78;4901838;29;20333;-73
2022/05/26 03:02:05;;;;;;;1.40;0.60;;;;;;;12.53;100.00;96816.84;4992849;28;20442;-71
2022/05/26 03:04:39;;;;;;;2.60;0.55;;;;;;;12.59;100.00;96817.69;5013234;28;20118;-72
2022/05/26 03:07:11;;;;;;;1.23;0.50;;;;;;;12.58;100.00;96808.00;5015108;28;20635;-71
2022/05/26 03:09:38;;;;;;;2.22;0.60;;;;;;;12.51;100.00;96824.31;4998613;28;20037;-72
2022/05/26 03:12:05;;;;;;;0.82;0.45;;;;;;;12.49;100.00;96804.97;5011765;28;20258;-71
2022/05/26 03:14:30;;;;;;;3.13;0.77;;;;;;;12.51;100.00;96810.06;5015332;28;20057;-73
2022/05/26 03:16:56;;;;;;;2.00;0.70;;;;;;;12.51;100.00;96805.50;5017724;28;20104;-71
2022/05/26 03:19:21;;;;;;;1.20;0.60;;;;;;;12.42;100.00;96814.28;5013655;28;20120;-74
2022/05/26 03:21:49;;;;;;;3.58;0.70;;;;;;;12.49;100.00;96815.69;5016470;28;20144;-71
2022/05/26 03:24:15;;;;;;;3.05;0.60;;;;;;;12.48;100.00;96814.09;5016085;28;20056;-73
2022/05/26 03:26:40;;;;;;;2.17;0.60;;;;;;;12.46;100.00;96820.78;5013682;28;20038;-74
2022/05/26 03:29:06;;;;;;;3.08;0.60;;;;;;;12.47;100.00;96819.72;5015995;28;20042;-71
2022/05/26 03:31:33;;;;;;;1.10;0.50;;;;;;;12.49;100.00;96820.25;5015631;28;20050;-71
2022/05/26 03:42:14;;;;;;;5.43;0.70;;;;;;;12.36;100.00;96824.13;5010761;28;20049;-72
2022/05/26 03:44:40;;;;;;;3.80;0.70;;;;;;;12.37;100.00;96819.56;5014857;28;20130;-72
2022/05/26 03:47:06;;;;;;;1.85;0.60;;;;;;;12.42;100.00;96836.56;5013961;28;20072;-72
2022/05/26 03:49:32;;;;;;;3.38;0.55;;;;;;;12.42;100.00;96835.75;5013001;28;20123;-72
2022/05/26 03:51:58;;;;;;;1.40;0.60;;;;;;;12.44;100.00;96850.53;5015005;28;20089;-73
2022/05/26 03:54:27;;;;;;;1.63;0.50;;;;;;;12.42;100.00;96843.78;5011792;28;20156;-71
2022/05/26 03:56:52;;;;;;;5.47;0.70;;;;;;;12.42;100.00;96841.09;5016908;28;20131;-71
2022/05/26 03:59:18;;;;;;;1.70;0.70;;;;;;;12.36;100.00;96842.91;5011724;28;20120;-72
2022/05/26 04:01:43;;;;;;;2.85;0.63;;;;;;;12.30;100.00;96860.03;5012688;28;20480;-72
2022/05/26 04:04:09;;;;;;;3.10;0.77;;;;;;;12.31;100.00;96850.91;5012619;28;20118;-73
2022/05/26 04:06:36;;;;;;;0.75;0.40;;;;;;;12.31;100.00;96858.16;5017251;28;20042;-71
2022/05/26 04:09:02;;;;;;;1.45;0.70;;;;;;;12.24;100.00;96850.28;5013987;28;20389;-75
2022/05/26 04:11:28;;;;;;;2.30;0.70;;;;;;;12.27;100.00;96853.28;5013559;28;20041;-72
2022/05/26 04:13:53;;;;;;;1.50;0.45;;;;;;;12.31;100.00;96860.84;5014432;28;20040;-73
2022/05/26 04:16:20;;;;;;;1.55;0.50;;;;;;;12.34;100.00;96861.16;5016338;28;20436;-71
2022/05/26 04:18:46;;;;;;;3.00;0.47;;;;;;;12.39;100.00;96860.41;4999514;28;20041;-71
2022/05/26 04:21:13;;;;;;;1.13;0.50;;;;;;;12.48;100.00;96862.41;5016260;28;20037;-73
2022/05/26 04:23:39;;;;;;;7.90;2.70;;;;;;;12.51;100.00;96867.25;5013139;28;20066;-73
2022/05/26 04:26:07;;;;;;;10.98;3.47;;;;;;;12.50;100.00;96868.31;5015605;28;20045;-72
2022/05/26 04:28:33;;;;;;;11.90;3.38;;;;;;;12.55;100.00;96876.44;5014407;28;20034;-71
2022/05/26 04:30:59;;;;;;;6.93;2.42;;;;;;;12.51;100.00;96880.66;5000540;28;20504;-71
2022/05/26 04:33:25;;;;;;;8.82;2.05;;;;;;;12.35;100.00;96878.88;5015249;28;20042;-74
2022/05/26 04:35:50;;;;;;;7.22;1.95;;;;;;;12.40;100.00;96886.19;5016269;28;20037;-74
2022/05/26 04:38:17;;;;;;;6.10;2.13;;;;;;;12.37;100.00;96878.59;5014263;28;20156;-74
2022/05/26 04:40:44;;;;;;;8.48;2.70;;;;;;;12.36;100.00;96882.34;5013587;28;20634;-72
2022/05/26 04:43:11;;;;;;;4.63;1.50;;;;;;;12.40;100.00;96881.63;5013951;28;20080;-74
2022/05/26 04:45:36;;;;;;;3.58;0.90;;;;;;;12.40;100.00;96892.34;5030276;28;20075;-72
2022/05/26 04:48:03;;;;;;;3.65;1.10;;;;;;;12.40;100.00;96884.31;5012975;28;20148;-75
2022/05/26 04:50:28;;;;;;;3.95;1.15;;;;;;;12.37;100.00;96886.66;5014309;28;20511;-72
2022/05/26 04:52:54;;;;;;;4.00;0.70;;;;;;;12.42;100.00;96894.78;5015541;28;20037;-73
2022/05/26 04:55:19;;;;;;;1.55;0.63;;;;;;;12.39;100.00;96884.56;4996790;28;20049;-71
2022/05/26 04:57:45;;;;;;;5.22;1.30;;;;;;;12.41;100.00;96888.59;5011834;28;20037;-72
2022/05/26 05:00:14;;;;;;;3.88;1.23;;;;;;;12.38;100.00;96889.13;5012983;28;20069;-73
2022/05/26 05:02:40;;;;;;;5.45;1.38;;;;;;;12.46;100.00;96896.72;5015584;28;20045;-71
2022/05/26 05:05:07;;;;;;;1.92;0.60;;;;;;;12.48;100.00;96899.97;5014801;28;20045;-75
2022/05/26 05:07:32;;;;;;;2.67;0.70;;;;;;;12.49;100.00;96911.53;5016002;28;20660;-73
2022/05/26 05:09:58;;;;;;;1.83;0.70;;;;;;;12.44;100.00;96900.72;5017277;28;20040;-72
2022/05/26 05:12:26;;;;;;;3.05;0.80;;;;;;;12.45;100.00;96892.44;5001800;28;20037;-71
2022/05/26 05:14:54;;;;;;;3.92;0.95;;;;;;;12.52;100.00;96901.06;5012712;28;20038;-73
2022/05/26 05:17:21;;;;;;;3.03;0.80;;;;;;;12.62;100.00;96900.41;5012973;28;20045;-73
2022/05/26 05:19:47;;;;;;;2.22;0.70;;;;;;;12.63;100.00;96903.91;5015188;28;20532;-72
2022/05/26 05:22:30;;;;;;;4.55;0.77;;;;;;;12.75;100.00;96896.50;5013783;28;20689;-73
2022/05/26 05:24:59;;;;;;;3.60;0.70;;;;;;;12.90;100.00;96907.44;5012572;28;20168;-73
2022/05/26 05:27:37;;;;;;;2.03;0.60;;;;;;;12.94;100.00;96902.38;5012691;28;20047;-72
2022/05/26 05:30:10;;;;;;;3.42;0.80;;;;;;;12.97;100.00;96905.34;5014257;28;20054;-74
2022/05/26 05:32:43;;;;;;;3.83;0.80;;;;;;;13.04;100.00;96915.91;5015062;28;20609;-73
2022/05/26 05:35:15;;;;;;;2.78;0.70;;;;;;;13.04;100.00;96918.59;5016208;28;20062;-73
2022/05/26 05:37:42;;;;;;;3.00;0.70;;;;;;;13.03;100.00;96923.16;5017168;28;20127;-74
2022/05/26 05:40:08;;;;;;;3.42;0.80;;;;;;;12.94;100.00;96919.31;5016038;28;20306;-72
2022/05/26 05:42:34;;;;;;;3.28;0.93;;;;;;;13.13;100.00;96921.63;5015533;28;20485;-72
2022/05/26 05:45:00;;;;;;;4.47;0.77;;;;;;;13.24;100.00;96929.59;5014666;28;20041;-73
2022/05/26 05:47:26;;;;;;;3.17;0.75;;;;;;;13.24;100.00;96937.66;5015068;28;20491;-72
2022/05/26 05:49:51;;;;;;;3.88;0.90;;;;;;;13.00;100.00;96934.41;5015467;28;20041;-73
2022/05/26 05:52:22;;;;;;;2.65;0.70;;;;;;;13.12;100.00;96936.94;5017106;28;20454;-71
2022/05/26 05:54:48;;;;;;;5.53;1.02;;;;;;;13.14;100.00;96934.81;5019197;28;20041;-74
2022/05/26 05:57:14;;;;;;;2.92;0.80;;;;;;;13.11;100.00;96930.75;5017283;28;20438;-74
2022/05/26 05:59:39;;;;;;;3.00;0.90;;;;;;;13.02;100.00;96937.66;5017128;28;20042;-73
2022/05/26 06:02:06;;;;;;;6.45;2.47;;;;;;;13.02;100.00;96943.03;5033253;28;20487;-72
2022/05/26 06:04:32;;;;;;;3.17;0.90;;;;;;;13.06;100.00;96943.31;5015796;28;20705;-73
2022/05/26 06:06:59;;;;;;;3.10;0.90;;;;;;;13.10;100.00;96949.84;5018071;28;20077;-72
2022/05/26 06:09:24;;;;;;;4.57;1.08;;;;;;;13.13;100.00;96949.31;5017577;28;20041;-73
2022/05/26 06:11:50;;;;;;;4.30;0.90;;;;;;;13.24;100.00;96952.97;5021440;28;20041;-73
2022/05/26 06:14:16;;;;;;;5.38;1.10;;;;;;;13.10;100.00;96955.19;5014279;28;20048;-73
2022/05/26 06:16:42;;;;;;;4.88;1.00;;;;;;;13.04;100.00;96962.38;5017558;28;20094;-73
2022/05/26 06:19:08;;;;;;;5.78;1.20;;;;;;;12.94;100.00;96964.97;5013523;28;20029;-74
2022/05/26 06:21:36;;;;;;;3.72;0.80;;;;;;;13.02;100.00;96959.16;5018637;28;20310;-73
2022/05/26 06:24:02;;;;;;;4.65;1.00;;;;;;;13.23;100.00;96960.22;4323804;28;10000481;-77
2022/05/26 06:26:29;;;;;;;1.77;0.75;;;;;;;13.28;100.00;96964.81;5013308;28;20038;-74
2022/05/26 06:37:13;;;;;;;6.43;1.52;;;;;;;13.50;100.00;96968.28;5014369;28;20049;-76
2022/05/26 06:37:15;;;;;;;6.90;1.52;;;;;;;13.65;100.00;96968.41;5012706;28;20116;-74
2022/05/26 06:39:41;;;;;;;3.78;1.20;;;;;;;13.84;100.00;96976.09;5014416;28;20034;-74
2022/05/26 06:42:09;;;;;;;5.53;1.30;;;;;;;14.01;100.00;96979.47;5011712;28;20045;-76
2022/05/26 06:44:44;;;;;;;5.15;2.10;;;;;;;13.95;100.00;96983.19;5012499;28;20257;-72
2022/05/26 06:47:13;;;;;;;4.15;1.60;;;;;;;14.01;100.00;96984.88;5012787;28;20103;-71
2022/05/26 06:49:40;;;;;;;4.22;0.93;;;;;;;13.93;100.00;96993.41;5012608;28;20496;-71
2022/05/26 06:52:06;;;;;;;3.80;1.42;;;;;;;13.74;100.00;96997.53;5012592;28;20385;-72
2022/05/26 06:54:34;;;;;;;3.85;1.50;;;;;;;13.62;100.00;96995.81;5013678;28;20571;-72
2022/05/26 06:57:00;;;;;;;6.40;1.45;;;;;;;13.68;100.00;96993.16;5013241;28;20045;-73
2022/05/26 06:59:27;;;;;;;7.63;1.63;;;;;;;13.77;100.00;97000.50;5009100;28;20029;-71
2022/05/26 07:01:52;;;;;;;10.43;2.03;;;;;;;13.75;100.00;97004.53;5012537;28;20041;-71
2022/05/26 07:04:18;;;;;;;4.95;1.50;;;;;;;14.02;100.00;97005.31;5011406;28;20124;-71
2022/05/26 07:06:47;;;;;;;3.95;1.50;;;;;;;14.33;100.00;97003.66;5015945;28;20036;-72
2022/05/26 07:09:13;;;;;;;8.13;1.50;;;;;;;14.51;100.00;96991.69;5014494;28;20443;-74
2022/05/26 07:11:38;;;;;;;5.93;1.95;;;;;;;14.71;100.00;96996.38;5017419;28;20041;-71
2022/05/26 07:14:04;;;;;;;5.53;1.30;;;;;;;14.76;100.00;97005.28;5014258;28;20444;-72
2022/05/26 07:16:29;;;;;;;7.15;1.55;;;;;;;14.60;100.00;97005.47;5014992;28;20075;-71
2022/05/26 07:18:55;;;;;;;3.63;1.38;;;;;;;14.62;100.00;97006.81;5014546;28;20144;-73
2022/05/26 07:21:21;;;;;;;5.88;1.17;;;;;;;14.52;100.00;97017.53;5016300;28;20050;-71
2022/05/26 07:23:47;;;;;;;4.57;1.48;;;;;;;14.40;100.00;97006.13;5011787;28;20041;-72
2022/05/26 07:26:14;;;;;;;6.18;1.65;;;;;;;14.29;100.00;97005.25;5016568;28;20269;-72
2022/05/26 07:28:42;;;;;;;5.45;1.38;;;;;;;14.08;100.00;97017.72;5029651;28;20041;-72
2022/05/26 07:31:13;;;;;;;5.00;1.60;;;;;;;14.14;100.00;97021.28;5015368;28;20049;-74
2022/05/26 07:33:38;;;;;;;5.55;1.40;;;;;;;14.73;100.00;97015.78;5014770;28;20036;-73
2022/05/26 07:36:05;;;;;;;6.00;1.23;;;;;;;15.11;100.00;97017.31;5014141;28;20423;-75
2022/05/26 07:41:26;;;;;;;6.57;1.73;;;;;;;14.58;100.00;97021.88;5014637;28;20472;-72
2022/05/26 07:43:55;;;;;;;13.13;2.47;;;;;;;14.60;100.00;97018.94;4999208;28;20038;-73
2022/05/26 07:46:22;;;;;;;5.88;1.55;;;;;;;15.03;100.00;97023.22;5014634;28;20038;-73
2022/05/26 07:48:48;;;;;;;6.57;2.00;;;;;;;15.26;100.00;97021.97;5014984;28;20116;-75
2022/05/26 07:51:15;;;;;;;7.72;1.73;;;;;;;15.73;100.00;97021.03;5012987;28;20234;-74
2022/05/26 07:53:41;;;;;;;6.72;1.80;;;;;;;16.03;100.00;97017.53;5014493;28;20049;-73
2022/05/26 07:56:07;;;;;;;7.07;1.75;;;;;;;16.21;100.00;97019.69;4667938;28;9999737;-75
2022/05/26 07:58:34;;;;;;;6.13;1.55;;;;;;;16.21;100.00;97029.69;5017705;28;20048;-72
2022/05/26 08:01:01;;;;;;;8.00;1.75;;;;;;;16.02;100.00;97027.50;5001131;28;20148;-75
2022/05/26 08:03:26;;;;;;;5.80;1.80;;;;;;;15.91;100.00;97033.19;5013192;28;20484;-74
2022/05/26 08:05:52;;;;;;;5.78;1.95;;;;;;;15.80;100.00;97035.06;5027732;28;20042;-74
2022/05/26 08:08:18;;;;;;;6.93;1.48;;;;;;;15.56;100.00;97034.69;5011303;28;20079;-74
2022/05/26 08:10:44;;;;;;;4.80;1.60;;;;;;;15.80;100.00;97035.88;5015120;28;20102;-73
2022/05/26 08:13:10;;;;;;;8.55;1.60;;;;;;;15.63;100.00;97040.69;5014629;28;20041;-76
2022/05/26 08:15:35;;;;;;;6.55;1.63;;;;;;;15.56;100.00;97042.78;5013217;28;20499;-73
2022/05/26 08:18:00;;;;;;;6.00;1.85;;;;;;;15.57;100.00;97053.34;5011202;28;20107;-73
2022/05/26 08:20:29;;;;;;;5.75;1.55;;;;;;;15.59;100.00;97044.97;5011445;28;20336;-73
2022/05/26 08:22:55;;;;;;;9.32;1.60;;;;;;;15.48;100.00;97051.41;5011409;28;20049;-74
2022/05/26 08:25:21;;;;;;;6.70;1.45;;;;;;;15.37;100.00;97057.84;5014025;28;20057;-74
2022/05/26 08:27:46;;;;;;;6.60;1.50;;;;;;;15.60;100.00;97062.78;5013498;28;20351;-73
2022/05/26 08:30:12;;;;;;;6.40;1.48;;;;;;;15.78;100.00;97061.50;4997238;28;20072;-73
2022/05/26 08:32:37;;;;;;;12.80;2.20;;;;;;;16.23;100.00;97062.63;5029068;28;20458;-73
2022/05/26 08:35:08;;;;;;;5.72;1.85;;;;;;;16.88;100.00;97053.66;5014837;28;20528;-76
2022/05/26 08:37:33;;;;;;;5.57;1.90;;;;;;;16.88;100.00;97064.47;5014485;28;20154;-74
2022/05/26 08:39:59;;;;;;;7.40;2.03;;;;;;;16.65;100.00;97059.63;5014208;28;20116;-74
2022/05/26 08:42:27;;;;;;;6.10;1.80;;;;;;;16.63;100.00;97059.91;5010950;28;20133;-73
2022/05/26 08:44:58;;;;;;;11.25;1.83;;;;;;;16.79;100.00;97059.91;5017055;28;20314;-74
2022/05/26 08:47:34;;;;;;;4.78;1.63;;;;;;;17.13;100.00;97060.91;5011697;28;20076;-74
2022/05/26 08:50:14;;;;;;;7.43;1.77;;;;;;;17.54;100.00;97058.84;5011275;28;20042;-73
2022/05/26 08:52:56;;;;;;;5.45;1.65;;;;;;;17.32;100.00;97054.88;5013268;28;20041;-74
2022/05/26 08:55:31;;;;;;;5.78;1.88;;;;;;;17.35;100.00;97065.94;5028103;28;20080;-74
2022/05/26 08:58:11;;;;;;;9.52;2.00;;;;;;;17.05;100.00;97069.59;5010994;28;20073;-73
2022/05/26 09:00:39;;;;;;;5.50;2.00;;;;;;;16.65;100.00;97070.44;5011235;28;20045;-72
2022/05/26 09:03:34;;;;;;;7.53;1.70;;;;;;;16.54;100.00;97087.75;5017014;28;20036;-73
2022/05/26 09:06:06;;;;;;;6.57;1.80;;;;;;;17.11;100.00;97100.91;5015779;28;20341;-72
2022/05/26 09:14:08;;;;;;;5.05;1.63;;;;;;;18.15;100.00;97095.59;5019434;28;20042;-74
2022/05/26 09:16:41;;;;;;;7.18;1.80;;;;;;;17.55;100.00;97098.34;5016149;28;20460;-72
2022/05/26 09:19:10;;;;;;;10.15;1.80;;;;;;;17.30;100.00;97101.13;5018901;28;20045;-75
2022/05/26 09:21:37;;;;;;;6.63;2.20;;;;;;;16.59;100.00;97107.47;5018663;28;20064;-73
2022/05/26 09:24:15;;;;;;;6.00;1.92;;;;;;;16.21;100.00;97111.50;5013466;28;20037;-73
2022/05/26 09:26:47;;;;;;;5.45;2.20;;;;;;;16.28;100.00;97120.16;5015944;28;20045;-73
2022/05/26 09:29:15;;;;;;;6.20;1.92;;;;;;;16.61;100.00;97121.50;5018773;28;20484;-71
2022/05/26 09:31:48;;;;;;;6.55;2.42;;;;;;;17.20;100.00;97115.50;5019149;28;20505;-71
2022/05/26 09:34:20;;;;;;;8.48;2.28;;;;;;;18.03;100.00;97117.59;5017772;28;20590;-73
2022/05/26 09:36:48;;;;;;;7.53;2.00;;;;;;;18.00;100.00;97122.78;5018329;28;20420;-72
2022/05/26 09:39:24;;;;;;;8.48;2.13;;;;;;;18.02;100.00;97129.53;5015772;28;20030;-74
2022/05/26 09:41:59;;;;;;;9.52;2.20;;;;;;;18.61;100.00;97125.88;5020739;28;20045;-73
2022/05/26 09:44:35;;;;;;;6.70;2.50;;;;;;;18.76;100.00;97124.97;5019847;28;20392;-74
2022/05/26 09:47:21;;;;;;;7.03;2.20;;;;;;;18.51;100.00;97125.13;5016588;28;20051;-72
2022/05/26 09:49:51;;;;;;;8.18;2.90;;;;;;;18.43;100.00;97121.13;5019275;28;20684;-72
2022/05/26 09:52:19;;;;;;;6.80;2.22;;;;;;;18.30;100.00;97111.75;5019823;28;20283;-74
2022/05/26 09:54:47;;;;;;;7.35;1.92;;;;;;;18.83;100.00;97121.91;5015969;28;20033;-72
2022/05/26 09:57:13;;;;;;;7.28;2.00;;;;;;;19.24;100.00;97113.38;5018712;28;20037;-73
2022/05/26 09:59:39;;;;;;;8.65;2.47;;;;;;;19.41;100.00;97114.53;5021213;28;20052;-73
2022/05/26 10:02:25;;;;;;;4.28;2.22;;;;;;;19.49;100.00;97119.31;5017574;28;20172;-72
2022/05/26 10:05:03;;;;;;;12.23;2.92;;;;;;;19.80;100.00;97121.69;5017195;28;20042;-72
2022/05/26 10:07:31;;;;;;;7.60;2.00;;;;;;;19.79;97.49;97124.69;5020057;28;20041;-73
2022/05/26 10:10:01;;;;;;;5.53;1.92;;;;;;;19.65;99.16;97128.13;5013144;28;20060;-72
2022/05/26 10:12:38;;;;;;;7.35;1.90;;;;;;;19.62;96.44;97136.84;5014551;28;20565;-74
2022/05/26 10:15:40;;;;;;;8.88;1.85;;;;;;;18.93;98.59;97135.38;5016279;28;20045;-73
2022/05/26 10:18:25;;;;;;;6.88;1.73;;;;;;;18.46;100.00;97131.41;5011944;28;20313;-73
2022/05/26 10:21:08;;;;;;;5.25;1.90;;;;;;;18.14;100.00;97131.91;5015375;28;20161;-73
2022/05/26 10:24:01;;;;;;;7.22;2.25;;;;;;;17.87;100.00;97137.72;5016241;28;20364;-74
2022/05/26 10:26:38;;;;;;;5.07;1.98;;;;;;;17.49;100.00;97142.72;5016243;28;20049;-73
2022/05/26 10:29:31;;;;;;;6.30;2.15;;;;;;;17.26;100.00;97151.44;5015102;28;20072;-73
2022/05/26 10:32:03;;;;;;;9.15;2.30;;;;;;;17.12;100.00;97147.69;5017966;28;20562;-72
2022/05/26 10:35:06;;;;;;;9.70;2.42;;;;;;;17.32;100.00;97152.25;5018864;28;20052;-73
2022/05/26 10:38:10;;;;;;;7.20;2.40;;;;;;;17.78;100.00;97147.53;5015550;28;20030;-73
2022/05/26 10:40:55;;;;;;;7.03;2.45;;;;;;;17.84;100.00;97151.81;5015095;28;20053;-73
2022/05/26 10:43:39;;;;;;;7.35;2.40;;;;;;;18.52;100.00;97149.25;5015512;28;20042;-75
2022/05/26 10:46:07;;;;;;;8.55;2.35;;;;;;;18.54;100.00;97144.34;4321092;28;10001326;-72
2022/05/26 10:49:13;;;;;;;8.15;2.35;;;;;;;18.82;100.00;97145.50;4992170;28;20780;-72
2022/05/26 10:51:43;;;;;;;6.82;2.60;;;;;;;19.00;100.00;97137.75;5032504;28;20172;-72
2022/05/26 10:54:15;;;;;;;5.13;2.20;;;;;;;19.38;96.47;97130.59;5030530;28;20477;-72
2022/05/26 10:56:56;;;;;;;7.93;2.28;;;;;;;19.53;93.33;97127.69;5015381;28;20068;-73
2022/05/26 10:59:30;;;;;;;7.53;1.75;;;;;;;20.61;88.54;97143.38;5013687;28;20034;-73
2022/05/26 11:02:01;;;;;;;4.57;2.33;;;;;;;20.93;87.59;97137.13;5002852;28;20054;-72
2022/05/26 11:04:31;;;;;;;;;;;;;;;21.56;84.42;97125.66;5031586;28;20038;-73
2022/05/26 11:07:10;;;;;;;5.68;2.53;;;;;;;22.17;82.43;97129.84;5014363;28;20066;-73
2022/05/26 11:09:41;;;;;;;6.25;2.08;;;;;;;22.15;79.48;97121.97;5014907;28;20037;-75
2022/05/26 11:12:20;;;;;;;6.40;1.90;;;;;;;21.69;72.97;97120.19;5012824;28;20084;-72
2022/05/26 11:17:53;;;;;;;7.10;1.90;;;;;;;21.56;72.35;97120.22;5012304;28;20148;-72
2022/05/26 11:20:26;;;;;;;5.50;1.48;;;;;;;22.00;63.80;97108.66;5013918;28;20519;-73
2022/05/26 11:22:53;;;;;;;7.65;2.28;;;;;;;22.61;67.14;97111.91;5010444;28;20136;-72
2022/05/26 11:25:34;;;;;;;6.63;1.60;;;;;;;22.96;64.13;97121.97;5009744;28;20045;-75
2022/05/26 11:28:11;;;;;;;5.32;1.77;;;;;;;24.17;54.68;97102.47;5012879;28;20042;-74
2022/05/26 11:36:17;;;;;;;4.95;1.95;;;;;;;23.22;62.92;97126.78;5010305;28;20045;-72
2022/05/26 11:38:49;;;;;;;7.07;2.03;;;;;;;28.06;40.26;97106.56;5013103;28;20451;-72
2022/05/26 11:41:46;;;;;;;5.07;1.60;;;;;;;31.39;30.35;97101.31;5029228;28;20041;-73
2022/05/26 11:44:11;;;;;;;5.78;2.45;;;;;;;27.10;37.46;97113.25;5011726;28;20044;-74
2022/05/26 11:46:45;;;;;;;8.10;1.80;;;;;;;24.23;50.21;97108.59;5017236;28;20034;-72
2022/05/26 11:49:43;;;;;;;8.48;2.55;;;;;;;25.67;40.38;97112.50;5015345;28;20042;-75
2022/05/26 11:52:22;;;;;;;4.82;1.80;;;;;;;25.67;43.12;97106.22;5017790;28;20041;-73
2022/05/26 11:54:54;;;;;;;7.60;1.40;;;;;;;30.56;32.52;97095.34;5015002;28;20037;-73
2022/05/26 11:57:44;;;;;;;6.07;1.85;;;;;;;28.31;35.57;97092.41;5016681;28;20136;-72
2022/05/26 12:00:15;;;;;;;6.47;1.73;;;;;;;27.49;36.06;97109.06;5013945;28;20149;-74
2022/05/26 12:02:46;;;;;;;5.97;1.52;;;;;;;25.45;43.52;97097.16;5015736;28;20052;-74
2022/05/26 12:05:30;;;;;;;4.72;1.58;;;;;;;23.36;53.98;97113.81;5015145;28;20041;-73
2022/05/26 12:07:57;;;;;;;5.45;1.63;;;;;;;22.52;65.56;97120.03;5015960;28;20053;-73
2022/05/26 12:10:26;;;;;;;7.93;1.50;;;;;;;21.95;69.17;97128.66;5028300;28;20489;-74
2022/05/26 12:13:25;;;;;;;4.88;1.90;;;;;;;21.67;59.67;97127.06;5017219;28;20041;-71
2022/05/26 12:16:18;;;;;;;7.45;1.80;;;;;;;23.56;58.31;97126.09;5011722;28;20521;-74
2022/05/26 12:19:04;;;;;;;6.13;2.20;;;;;;;30.59;34.02;97113.16;5011078;28;20098;-74
2022/05/26 12:21:29;;;;;;;6.55;1.83;;;;;;;32.34;28.18;97101.22;5013138;28;20040;-73